Mill Valley, CA

8:54 PM PST on February 23, 2017 (GMT -0800)
Tamalpais Park / Park & Miller Aves | | Change Station

Elev 43 ft 37.90 °N, 122.54 °W | Updated 31 seconds ago

Clear
Clear
43.2 °F
Feels Like 43 °F
N
0.0
Wind Variable Wind from West
Gusts 0.0 mph

Today
High -- | Low -- °F
--% Chance of Precip.
Yesterday
High -- | Low -- °F
Precip. -- in
Pressure 30.20 in
Visibility 10.0 miles
Clouds Few 2000 ft
Windchill 43 °F
Dew Point 40 °F
Humidity 87%
Rainfall 0.00 in
Snow Depth Not available.
6:49 AM 5:57 PM
Waning Crescent, 7% visible
METAR KOAK 240353Z 32005KT 10SM FEW020 09/03 A3020 RMK AO2 SLP226 T00940028
Pressure 30.20 in
Visibility 10.0 miles
Clouds Few 2000 ft
Windchill 43 °F
Dew Point 40 °F
Humidity 87%
Rainfall 0.00 in
Snow Depth Not available.
6:49 AM 5:57 PM
Waning Crescent, 7% visible
METAR KOAK 240353Z 32005KT 10SM FEW020 09/03 A3020 RMK AO2 SLP226 T00940028

Get Your Daily Forecast Email!

Thanks for signing up!

Be on the lookout for a verification email in your inbox.

You'll start receiving the daily forecast at 8 AM.

×

10-Day Weather Forecast

Almanac

Astronomy

Feb. 23, 2017 Rise Set
Actual Time
Civil Twilight
Nautical Twilight
Astronomical Twilight
Moon
Length of Visible Light
Length of Day
Tomorrow will be .
, % of the Moon is Illuminated

Today's Extremes

State Highs State Lows

Community

WunderPhotos

Upload Photos

1,962,540 photos uploaded!

WunderBlog® & News

Nearby

Air Quality

  Air Quality AQ Index Pollutant
Not available.

Snow Depth

Station Depth Elevation

Earthquake Activity

City Distance Mag. Time & Date
Minimum magnitude displayed is 2.5.

Coastal Water Temperatures

Place Temperature

Stations

Nearby Weather Stations

Station Location Temp. Windchill Dew Point Humidity Wind Precip. Elev Updated Type
                   

Watches & Warnings

There are currently no watches in effect.